Terminal Aerodrome Forecast
Issued by NWS

Home | Current Version | Previous Version | Text Only | Print | Product List | Glossary On
Versions: 1 2 3 4 5 6 7 8 9 10 11 12 13 14 15 16 17
742
FTUS46 KMFR 251146
TAFRBG
TAF
KRBG 251146Z 2512/2612 18005KT P6SM VCSH SCT020 OVC030
     FM251600 17008G15KT 3SM -RA BR SCT006 OVC015
     FM260100 30008KT 3SM -RA BR SCT005 OVC010
     FM260600 35005KT P6SM -SHRA BKN020 OVC030=

USA.gov is the U.S. government's official web portal to all federal, state and local government web resources and services.